createdAt,value
2016-11-30T00:00:27.999Z,84.07
2016-11-30T00:01:27.894Z,84.45
2016-11-30T00:02:28.063Z,84.16
2016-11-30T00:03:27.866Z,84.54
2016-11-30T00:04:28.016Z,84.26
2016-11-30T00:05:28.070Z,84.92
2016-11-30T00:06:28.928Z,85.49
2016-11-30T00:07:28.110Z,84.82
2016-11-30T00:08:28.054Z,84.64
2016-11-30T00:09:28.066Z,84.16
2016-11-30T00:10:28.029Z,84.16
2016-11-30T00:11:28.093Z,84.07
2016-11-30T00:12:28.103Z,83.03
2016-11-30T00:13:27.929Z,83.12
2016-11-30T00:14:28.018Z,82.75
2016-11-30T00:15:28.139Z,82.46
2016-11-30T00:16:28.168Z,82.37
2016-11-30T00:17:28.151Z,82.46
2016-11-30T00:18:28.361Z,82.84
2016-11-30T00:19:28.155Z,82.93
2016-11-30T00:20:28.259Z,82.56
2016-11-30T00:21:27.990Z,82.56
2016-11-30T00:22:28.223Z,82.46
2016-11-30T00:23:28.118Z,82.56
2016-11-30T00:24:28.317Z,81.9
2016-11-30T00:25:28.271Z,82.37
2016-11-30T00:26:28.222Z,82.37
2016-11-30T00:27:28.073Z,82.37
2016-11-30T00:28:28.098Z,82.75
2016-11-30T00:29:28.028Z,83.03
2016-11-30T00:30:28.023Z,83.03
2016-11-30T00:31:28.000Z,82.93
2016-11-30T00:32:28.060Z,82.46
2016-11-30T00:33:27.960Z,82.37
2016-11-30T00:34:28.532Z,82.46
2016-11-30T00:35:27.893Z,82.28
2016-11-30T00:36:28.082Z,81.99
2016-11-30T00:37:28.000Z,81.9
2016-11-30T00:38:27.934Z,82.37
2016-11-30T00:39:28.157Z,82.75
2016-11-30T00:40:28.135Z,82.75
2016-11-30T00:41:27.963Z,83.03
2016-11-30T00:42:28.145Z,83.12
2016-11-30T00:43:27.945Z,83.03
2016-11-30T00:44:28.067Z,83.4
2016-11-30T00:45:28.099Z,83.78
2016-11-30T00:46:28.119Z,83.78
2016-11-30T00:47:28.229Z,83.22
2016-11-30T00:48:30.494Z,82.75
2016-11-30T00:49:28.074Z,82.37
2016-11-30T00:50:28.054Z,82.75
2016-11-30T00:51:27.782Z,83.03
2016-11-30T00:52:28.120Z,82.09
2016-11-30T00:53:27.927Z,82.09
2016-11-30T00:54:27.990Z,82.37
2016-11-30T00:55:28.028Z,83.12
2016-11-30T00:56:27.925Z,82.46
2016-11-30T00:57:27.882Z,81.99
2016-11-30T00:58:28.093Z,82.46
2016-11-30T00:59:28.013Z,82.09
2016-11-30T01:00:28.051Z,81.61
2016-11-30T01:01:27.948Z,82.28
2016-11-30T01:02:27.957Z,81.71
2016-11-30T01:03:27.946Z,81.61
2016-11-30T01:04:27.978Z,80.95
2016-11-30T01:05:27.872Z,80.95
2016-11-30T01:06:27.940Z,80.48
2016-11-30T01:07:27.802Z,80.38
2016-11-30T01:08:27.850Z,80.19
2016-11-30T01:09:27.854Z,80
2016-11-30T01:10:27.976Z,80.38
2016-11-30T01:11:27.896Z,80.29
2016-11-30T01:12:27.949Z,80.1
2016-11-30T01:13:27.934Z,79.72
2016-11-30T01:14:28.051Z,79.82
2016-11-30T01:15:27.924Z,79.63
2016-11-30T01:16:27.988Z,79.63
2016-11-30T01:17:27.933Z,79.72
2016-11-30T01:18:27.882Z,79.44
2016-11-30T01:19:27.936Z,79.53
2016-11-30T01:20:28.050Z,79.53
2016-11-30T01:21:27.902Z,79.35
2016-11-30T01:22:27.949Z,78.97
2016-11-30T01:23:27.938Z,79.25
2016-11-30T01:24:27.928Z,79.44
2016-11-30T01:25:27.830Z,78.97
2016-11-30T01:26:28.096Z,78.78
2016-11-30T01:27:27.983Z,78.59
2016-11-30T01:28:28.017Z,78.5
2016-11-30T01:29:27.931Z,78.4
2016-11-30T01:30:27.902Z,78.68
2016-11-30T01:31:27.868Z,78.97
2016-11-30T01:32:28.046Z,78.97
2016-11-30T01:33:27.889Z,79.16
2016-11-30T01:34:27.852Z,79.44
2016-11-30T01:35:27.898Z,79.82
2016-11-30T01:36:27.949Z,79.25
2016-11-30T01:37:27.891Z,79.25
2016-11-30T01:38:28.003Z,78.87
2016-11-30T01:39:28.063Z,79.25
2016-11-30T01:40:27.938Z,80.19
2016-11-30T01:41:27.896Z,80.48
2016-11-30T01:42:27.916Z,80.29
2016-11-30T01:43:27.848Z,79.53
2016-11-30T01:44:27.936Z,79.72
2016-11-30T01:45:27.957Z,79.72
2016-11-30T01:46:27.969Z,79.44
2016-11-30T01:47:27.952Z,80.1
2016-11-30T01:48:27.987Z,80.66
2016-11-30T01:49:27.984Z,80.95
2016-11-30T01:50:28.193Z,81.04
2016-11-30T01:51:28.019Z,81.33
2016-11-30T01:52:28.073Z,80.95
2016-11-30T01:53:28.070Z,80.76
2016-11-30T01:54:28.128Z,80.57
2016-11-30T01:55:27.934Z,80.29
2016-11-30T01:56:28.042Z,80.76
2016-11-30T01:57:27.898Z,80.76
2016-11-30T01:58:27.974Z,81.23
2016-11-30T01:59:27.948Z,81.33
2016-11-30T02:00:27.997Z,81.71
2016-11-30T02:01:27.889Z,81.14
2016-11-30T02:02:28.073Z,81.23
2016-11-30T02:03:27.910Z,81.33
2016-11-30T02:04:27.923Z,81.61
2016-11-30T02:05:27.930Z,81.71
2016-11-30T02:06:28.067Z,82.09
2016-11-30T02:07:27.968Z,81.8
2016-11-30T02:08:27.906Z,81.9
2016-11-30T02:09:28.033Z,81.99
2016-11-30T02:10:28.000Z,81.9
2016-11-30T02:11:27.908Z,82.18
2016-11-30T02:12:27.898Z,83.03
2016-11-30T02:13:27.926Z,82.09
2016-11-30T02:14:28.137Z,82.37
2016-11-30T02:15:27.922Z,81.9
2016-11-30T02:16:27.928Z,81.71
2016-11-30T02:17:28.011Z,81.71
2016-11-30T02:18:28.038Z,81.52
2016-11-30T02:19:27.966Z,81.42
2016-11-30T02:20:28.067Z,81.9
2016-11-30T02:21:27.990Z,81.99
2016-11-30T02:22:27.999Z,82.09
2016-11-30T02:23:27.995Z,81.99
2016-11-30T02:24:27.919Z,82.09
2016-11-30T02:25:27.895Z,82.28
2016-11-30T02:26:28.015Z,81.99
2016-11-30T02:27:27.949Z,82.18
2016-11-30T02:28:27.881Z,82.75
2016-11-30T02:29:27.904Z,82.09
2016-11-30T02:30:28.183Z,82.18
2016-11-30T02:31:27.954Z,82.37
2016-11-30T02:32:28.143Z,82.56
2016-11-30T02:33:27.926Z,82.37
2016-11-30T02:34:27.992Z,82.37
2016-11-30T02:35:27.998Z,82.56
2016-11-30T02:36:27.881Z,81.9
2016-11-30T02:37:27.959Z,82.46
2016-11-30T02:38:27.959Z,82.09
2016-11-30T02:39:27.963Z,82.37
2016-11-30T02:40:27.975Z,82.37
2016-11-30T02:41:27.909Z,81.61
2016-11-30T02:42:28.113Z,81.61
2016-11-30T02:43:28.023Z,81.42
2016-11-30T02:44:28.078Z,81.71
2016-11-30T02:45:27.871Z,81.71
2016-11-30T02:46:28.089Z,81.71
2016-11-30T02:47:27.998Z,82.65
2016-11-30T02:48:28.015Z,82.46
2016-11-30T02:49:27.981Z,82.18
2016-11-30T02:50:28.034Z,81.99
2016-11-30T02:51:28.027Z,82.37
2016-11-30T02:52:28.014Z,82.09
2016-11-30T02:53:27.912Z,82.46
2016-11-30T02:54:27.896Z,82.56
2016-11-30T02:55:27.958Z,82.56
2016-11-30T02:56:28.005Z,82.65
2016-11-30T02:57:27.935Z,82.65
2016-11-30T02:58:28.056Z,82.09
2016-11-30T02:59:28.018Z,82.56
2016-11-30T03:00:28.044Z,81.9
2016-11-30T03:01:27.917Z,81.33
2016-11-30T03:02:28.036Z,81.8
2016-11-30T03:03:27.925Z,81.71
2016-11-30T03:04:28.144Z,81.52
2016-11-30T03:05:27.965Z,82.18
2016-11-30T03:06:28.033Z,82.18
2016-11-30T03:07:28.033Z,82.28
2016-11-30T03:08:28.034Z,82.09
2016-11-30T03:09:28.007Z,82.18
2016-11-30T03:10:28.046Z,82.46
2016-11-30T03:11:27.997Z,82.37
2016-11-30T03:12:28.037Z,81.99
2016-11-30T03:13:28.022Z,81.9
2016-11-30T03:14:28.009Z,82.09
2016-11-30T03:15:27.938Z,81.61
2016-11-30T03:16:27.959Z,81.52
2016-11-30T03:17:28.028Z,81.33
2016-11-30T03:18:27.958Z,82.56
2016-11-30T03:19:28.008Z,82.28
2016-11-30T03:20:28.108Z,82.37
2016-11-30T03:21:27.965Z,81.99
2016-11-30T03:22:28.251Z,81.99
2016-11-30T03:23:28.011Z,81.9
2016-11-30T03:24:28.064Z,82.09
2016-11-30T03:25:27.928Z,82.28
2016-11-30T03:26:28.014Z,83.03
2016-11-30T03:27:28.003Z,82.28
2016-11-30T03:28:28.031Z,82.09
2016-11-30T03:29:27.934Z,82.46
2016-11-30T03:30:27.963Z,81.9
2016-11-30T03:31:27.968Z,81.99
2016-11-30T03:32:28.059Z,82.28
2016-11-30T03:33:27.876Z,82.46
2016-11-30T03:34:28.078Z,82.93
2016-11-30T03:35:27.976Z,83.31
2016-11-30T03:36:28.077Z,83.88
2016-11-30T03:37:28.091Z,83.36
2016-11-30T03:38:27.977Z,83.69
2016-11-30T03:39:27.981Z,83.65
2016-11-30T03:40:27.948Z,84.22
2016-11-30T03:41:27.868Z,83.84
2016-11-30T03:42:27.963Z,84.5
2016-11-30T03:43:27.984Z,84.31
2016-11-30T03:44:27.993Z,84.59
2016-11-30T03:45:27.980Z,84.59
2016-11-30T03:46:28.152Z,84.78
2016-11-30T03:47:28.085Z,84.97
2016-11-30T03:48:28.125Z,85.06
2016-11-30T03:49:28.008Z,85.06
2016-11-30T03:50:28.136Z,84.88
2016-11-30T03:51:27.964Z,85.16
2016-11-30T03:52:28.051Z,84.97
2016-11-30T03:53:27.980Z,85.25
2016-11-30T03:54:28.004Z,85.06
2016-11-30T03:55:28.027Z,84.88
2016-11-30T03:56:28.067Z,85.35
2016-11-30T03:57:27.996Z,85.63
2016-11-30T03:58:28.051Z,86.1
2016-11-30T03:59:28.011Z,86.1
2016-11-30T04:00:28.026Z,86.01
2016-11-30T04:01:27.979Z,85.63
2016-11-30T04:02:28.238Z,85.63
2016-11-30T04:03:28.000Z,86.1
2016-11-30T04:04:28.121Z,86.19
2016-11-30T04:05:28.071Z,86.1
2016-11-30T04:06:28.115Z,86.67
2016-11-30T04:07:28.157Z,86.57
2016-11-30T04:08:28.171Z,86.48
2016-11-30T04:09:28.119Z,86.57
2016-11-30T04:10:28.235Z,86.67
2016-11-30T04:11:28.046Z,86.38
2016-11-30T04:12:28.169Z,86.57
2016-11-30T04:13:28.023Z,86.48
2016-11-30T04:14:28.109Z,86.38
2016-11-30T04:15:28.010Z,86.38
2016-11-30T04:16:28.027Z,86.67
2016-11-30T04:17:28.009Z,86.76
2016-11-30T04:18:28.109Z,87.05
2016-11-30T04:19:28.029Z,87.14
2016-11-30T04:20:27.980Z,86.95
2016-11-30T04:21:28.022Z,86.67
2016-11-30T04:22:28.015Z,86.57
2016-11-30T04:23:28.022Z,86.48
2016-11-30T04:24:28.124Z,86.57
2016-11-30T04:25:28.055Z,86.67
2016-11-30T04:26:28.053Z,86.95
2016-11-30T04:27:28.180Z,86.57
2016-11-30T04:28:28.174Z,86.76
2016-11-30T04:29:28.149Z,86.95
2016-11-30T04:30:28.203Z,87.24
2016-11-30T04:31:28.075Z,87.14
2016-11-30T04:32:28.196Z,87.8
2016-11-30T04:33:27.986Z,87.9
2016-11-30T04:34:28.242Z,87.62
2016-11-30T04:35:28.049Z,87.8
2016-11-30T04:36:28.158Z,87.24
2016-11-30T04:37:28.085Z,87.33
2016-11-30T04:38:28.166Z,87.43
2016-11-30T04:39:28.095Z,88.09
2016-11-30T04:40:28.067Z,87.8
2016-11-30T04:41:28.064Z,87.8
2016-11-30T04:42:28.282Z,87.71
2016-11-30T04:43:28.066Z,87.71
2016-11-30T04:44:28.146Z,87.8
2016-11-30T04:45:28.094Z,87.62
2016-11-30T04:46:28.215Z,87.62
2016-11-30T04:47:28.034Z,87.9
2016-11-30T04:48:28.111Z,87.62
2016-11-30T04:49:28.115Z,87.14
2016-11-30T04:50:28.100Z,87.05
2016-11-30T04:51:28.236Z,86.76
2016-11-30T04:52:28.101Z,86.76
2016-11-30T04:53:28.062Z,86.95
2016-11-30T04:54:28.328Z,86.95
2016-11-30T04:55:28.103Z,87.52
2016-11-30T04:56:28.122Z,87.33
2016-11-30T04:57:28.162Z,87.14
2016-11-30T04:58:28.160Z,87.33
2016-11-30T04:59:28.141Z,86.95
2016-11-30T05:00:28.111Z,87.24
2016-11-30T05:01:28.099Z,87.14
2016-11-30T05:02:28.244Z,86.76
2016-11-30T05:03:28.050Z,86.95
2016-11-30T05:04:28.124Z,86.95
2016-11-30T05:05:28.093Z,87.14
2016-11-30T05:06:28.272Z,87.62
2016-11-30T05:07:28.171Z,87.24
2016-11-30T05:08:28.221Z,86.95
2016-11-30T05:09:28.129Z,87.14
2016-11-30T05:10:28.268Z,87.33
2016-11-30T05:11:28.207Z,87.33
2016-11-30T05:12:28.219Z,87.14
2016-11-30T05:13:28.090Z,87.71
2016-11-30T05:14:28.334Z,87.71
2016-11-30T05:15:28.203Z,87.71
2016-11-30T05:16:28.361Z,87.9
2016-11-30T05:17:28.166Z,87.8
2016-11-30T05:18:28.325Z,87.8
2016-11-30T05:19:28.228Z,87.99
2016-11-30T05:20:28.335Z,88.18
2016-11-30T05:21:28.280Z,88.46
2016-11-30T05:22:28.285Z,88.37
2016-11-30T05:23:28.252Z,87.8
2016-11-30T05:24:28.239Z,87.9
2016-11-30T05:25:28.310Z,87.62
2016-11-30T05:26:28.146Z,87.8
2016-11-30T05:27:28.304Z,87.8
2016-11-30T05:28:28.386Z,87.8
2016-11-30T05:29:28.249Z,87.62
2016-11-30T05:30:28.156Z,87.24
2016-11-30T05:31:28.183Z,86.86
2016-11-30T05:32:28.259Z,87.14
2016-11-30T05:33:28.164Z,87.14
2016-11-30T05:34:28.437Z,87.14
2016-11-30T05:35:28.111Z,87.05
2016-11-30T05:36:28.244Z,86.38
2016-11-30T05:37:28.207Z,86.95
2016-11-30T05:38:28.277Z,86.95
2016-11-30T05:39:28.319Z,87.33
2016-11-30T05:40:28.197Z,87.33
2016-11-30T05:41:29.267Z,86.67
2016-11-30T05:42:28.317Z,86.38
2016-11-30T05:43:28.257Z,86.01
2016-11-30T05:44:28.401Z,86.76
2016-11-30T05:45:28.344Z,86.76
2016-11-30T05:46:28.342Z,86.19
2016-11-30T05:47:28.311Z,86.19
2016-11-30T05:48:28.268Z,86.01
2016-11-30T05:49:28.497Z,86.19
2016-11-30T05:50:28.369Z,85.82
2016-11-30T05:51:28.249Z,85.82
2016-11-30T05:52:28.359Z,85.72
2016-11-30T05:53:28.257Z,85.25
2016-11-30T05:54:28.337Z,85.63
2016-11-30T05:55:28.327Z,85.35
2016-11-30T05:56:28.332Z,85.35
2016-11-30T05:57:28.276Z,85.63
2016-11-30T05:58:28.376Z,85.53
2016-11-30T05:59:28.255Z,85.53
2016-11-30T06:00:28.507Z,85.91
2016-11-30T06:01:28.140Z,85.82
2016-11-30T06:02:28.427Z,85.91
2016-11-30T06:03:28.357Z,85.63
2016-11-30T06:04:28.415Z,85.44
2016-11-30T06:05:28.345Z,85.16
2016-11-30T06:06:28.362Z,85.35
2016-11-30T06:07:28.283Z,85.44
2016-11-30T06:08:28.382Z,86.1
2016-11-30T06:09:28.155Z,85.44
2016-11-30T06:10:28.313Z,86.19
2016-11-30T06:11:28.266Z,85.82
2016-11-30T06:12:28.235Z,85.63
2016-11-30T06:13:28.268Z,85.82
2016-11-30T06:14:28.335Z,86.1
2016-11-30T06:15:28.214Z,85.72
2016-11-30T06:16:28.390Z,85.44
2016-11-30T06:17:28.305Z,85.63
2016-11-30T06:18:28.324Z,85.35
2016-11-30T06:19:28.234Z,85.53
2016-11-30T06:20:28.339Z,85.91
2016-11-30T06:21:28.214Z,85.25
2016-11-30T06:22:28.377Z,84.97
2016-11-30T06:23:28.285Z,84.59
2016-11-30T06:24:28.371Z,84.69
2016-11-30T06:25:28.168Z,84.97
2016-11-30T06:26:28.250Z,84.97
2016-11-30T06:27:28.144Z,84.69
2016-11-30T06:28:28.228Z,84.03
2016-11-30T06:29:28.230Z,84.31
2016-11-30T06:30:28.241Z,84.22
2016-11-30T06:31:28.166Z,84.69
2016-11-30T06:32:28.318Z,84.12
2016-11-30T06:33:28.356Z,84.12
2016-11-30T06:34:28.457Z,83.65
2016-11-30T06:35:28.462Z,84.12
2016-11-30T06:36:28.432Z,83.93
2016-11-30T06:37:28.362Z,83.36
2016-11-30T06:38:28.251Z,83.27
2016-11-30T06:39:28.374Z,83.08
2016-11-30T06:40:28.639Z,82.99
2016-11-30T06:41:28.252Z,82.99
2016-11-30T06:42:28.300Z,82.8
2016-11-30T06:43:28.189Z,83.08
2016-11-30T06:44:28.428Z,83.36
2016-11-30T06:45:28.415Z,82.8
2016-11-30T06:46:28.451Z,82.51
2016-11-30T06:47:28.478Z,82.99
2016-11-30T06:48:28.292Z,82.99
2016-11-30T06:49:28.384Z,83.17
2016-11-30T06:50:28.328Z,82.8
2016-11-30T06:51:28.297Z,82.7
2016-11-30T06:52:28.273Z,83.17
2016-11-30T06:53:28.345Z,83.36
2016-11-30T06:54:28.274Z,83.46
2016-11-30T06:55:28.343Z,83.65
2016-11-30T06:56:28.337Z,83.65
2016-11-30T06:57:28.369Z,83.46
2016-11-30T06:58:28.433Z,83.46
2016-11-30T06:59:28.419Z,83.65
2016-11-30T07:00:28.287Z,84.03
2016-11-30T07:01:28.260Z,84.03
2016-11-30T07:02:28.422Z,83.74
2016-11-30T07:03:28.234Z,83.74
2016-11-30T07:04:28.488Z,83.84
2016-11-30T07:05:28.351Z,84.03
2016-11-30T07:06:28.317Z,84.12
2016-11-30T07:07:29.078Z,84.31
2016-11-30T07:08:28.251Z,84.5
2016-11-30T07:09:28.237Z,84.5
2016-11-30T07:10:28.284Z,84.88
2016-11-30T07:11:28.357Z,84.97
2016-11-30T07:12:28.499Z,85.06
2016-11-30T07:13:28.257Z,85.06
2016-11-30T07:14:28.372Z,84.97
2016-11-30T07:15:28.391Z,84.97
2016-11-30T07:16:28.335Z,84.97
2016-11-30T07:17:28.207Z,85.06
2016-11-30T07:18:28.389Z,85.25
2016-11-30T07:19:28.346Z,85.44
2016-11-30T07:20:28.539Z,85.63
2016-11-30T07:21:28.195Z,85.63
2016-11-30T07:22:28.298Z,85.44
2016-11-30T07:23:28.162Z,85.16
2016-11-30T07:24:28.398Z,85.35
2016-11-30T07:25:28.237Z,85.16
2016-11-30T07:26:28.386Z,85.35
2016-11-30T07:27:28.110Z,85.35
2016-11-30T07:28:28.304Z,85.06
2016-11-30T07:29:28.593Z,84.88
2016-11-30T07:30:28.285Z,84.88
2016-11-30T07:31:28.516Z,84.97
2016-11-30T07:32:28.431Z,84.59
2016-11-30T07:33:28.464Z,85.44
2016-11-30T07:34:36.358Z,85.25
2016-11-30T07:35:36.813Z,85.35
2016-11-30T07:46:59.118Z,81.67
2016-11-30T07:47:59.183Z,82.32
2016-11-30T07:48:58.908Z,81.67
2016-11-30T07:49:58.845Z,81.95
2016-11-30T07:50:59.026Z,82.51
2016-11-30T07:51:59.190Z,82.04
2016-11-30T07:52:59.018Z,81.67
2016-11-30T07:53:59.169Z,81.67
2016-11-30T07:54:58.900Z,81.01
2016-11-30T07:55:59.147Z,80.72
2016-11-30T07:56:59.113Z,80.72
2016-11-30T07:57:59.192Z,80.63
2016-11-30T07:58:58.899Z,80.53
2016-11-30T07:59:59.285Z,79.91
2016-11-30T08:00:59.095Z,79.49
2016-11-30T08:01:59.164Z,79.3
2016-11-30T08:02:59.327Z,79.25
2016-11-30T08:03:59.198Z,79.16
2016-11-30T08:04:59.005Z,79.44
2016-11-30T08:05:59.183Z,79.16
2016-11-30T08:06:59.314Z,79.11
2016-11-30T08:07:59.125Z,79.25
2016-11-30T08:08:59.080Z,78.87
2016-11-30T08:09:58.931Z,78.78
2016-11-30T08:10:59.803Z,78.4
2016-11-30T08:11:59.152Z,78.5
2016-11-30T08:12:59.112Z,78.21
2016-11-30T08:13:59.196Z,78.4
2016-11-30T08:14:59.162Z,77.93
2016-11-30T08:15:59.179Z,77.45
2016-11-30T08:16:59.098Z,77.45
2016-11-30T08:17:59.257Z,77.36
2016-11-30T08:18:58.870Z,77.36
2016-11-30T08:19:59.061Z,77.74
2016-11-30T08:20:59.006Z,77.83
2016-11-30T08:21:58.985Z,77.36
2016-11-30T08:22:59.156Z,77.08
2016-11-30T08:23:59.145Z,76.89
2016-11-30T08:24:59.080Z,77.17
2016-11-30T08:25:59.131Z,77.08
2016-11-30T08:26:59.125Z,77.17
2016-11-30T08:27:59.046Z,76.61
2016-11-30T08:28:58.892Z,76.61
2016-11-30T08:29:59.089Z,76.98
2016-11-30T08:30:59.031Z,76.61
2016-11-30T08:31:59.082Z,76.51
2016-11-30T08:32:59.103Z,76.14
2016-11-30T08:33:59.100Z,75.28
2016-11-30T08:34:59.201Z,75
2016-11-30T08:35:59.171Z,75.28
2016-11-30T08:36:59.042Z,75.28
2016-11-30T08:37:59.142Z,74.76
2016-11-30T08:38:59.136Z,74.76
2016-11-30T08:39:59.291Z,74.95
2016-11-30T08:40:59.109Z,74.76
2016-11-30T08:41:59.295Z,74.85
2016-11-30T08:42:59.057Z,75.42
2016-11-30T08:43:59.184Z,74.66
2016-11-30T08:44:58.994Z,74.09
2016-11-30T08:45:59.205Z,74.19
2016-11-30T08:46:58.997Z,73.81
2016-11-30T08:47:59.086Z,74
2016-11-30T08:48:59.081Z,73.71
2016-11-30T08:49:59.150Z,73.62
2016-11-30T08:50:59.011Z,72.49
2016-11-30T08:51:59.269Z,72.58
2016-11-30T08:52:59.714Z,72.2
2016-11-30T08:53:59.267Z,72.05
2016-11-30T08:55:00.205Z,71.54
2016-11-30T08:55:59.158Z,71.2
2016-11-30T08:56:59.125Z,72.05
2016-11-30T08:57:59.213Z,71.86
2016-11-30T08:58:59.249Z,71.48
2016-11-30T08:59:59.245Z,71.01
2016-11-30T09:00:58.998Z,70.25
2016-11-30T09:01:59.217Z,70.16
2016-11-30T09:02:59.326Z,69.68
2016-11-30T09:03:59.264Z,69.4
2016-11-30T09:04:59.154Z,69.31
2016-11-30T09:05:59.271Z,69.31
2016-11-30T09:06:59.439Z,69.21
2016-11-30T09:07:59.160Z,69.02
2016-11-30T09:08:59.206Z,69.21
2016-11-30T09:09:59.280Z,68.93
2016-11-30T09:10:59.269Z,69.02
2016-11-30T09:11:59.425Z,68.77
2016-11-30T09:12:59.418Z,68.55
2016-11-30T09:13:59.390Z,68.4
2016-11-30T09:14:59.245Z,68.08
2016-11-30T09:15:58.966Z,68.12
2016-11-30T09:16:59.320Z,68.02
2016-11-30T09:17:59.295Z,67.45
2016-11-30T09:18:59.248Z,67.74
2016-11-30T09:19:59.287Z,67.36
2016-11-30T09:20:59.242Z,67.17
2016-11-30T09:21:59.408Z,67.17
2016-11-30T09:22:59.356Z,67.64
2016-11-30T09:24:00.248Z,66.88
2016-11-30T09:24:59.071Z,66.69
2016-11-30T09:25:59.212Z,66.79
2016-11-30T09:26:59.242Z,66.69
2016-11-30T09:27:59.179Z,66.41
2016-11-30T09:28:59.238Z,66.5
2016-11-30T09:29:59.078Z,65.94
2016-11-30T09:34:29.673Z,64.71
2016-11-30T09:35:29.754Z,63.98
2016-11-30T09:36:29.779Z,63.42
2016-11-30T09:37:29.694Z,63.04
2016-11-30T09:38:29.612Z,62.56
2016-11-30T09:39:29.532Z,62.21
2016-11-30T09:40:29.559Z,61.55
2016-11-30T09:41:29.814Z,61.08
2016-11-30T09:42:29.623Z,60.99
2016-11-30T09:43:29.648Z,60.51
2016-11-30T09:44:29.596Z,60.06
2016-11-30T09:45:29.526Z,60.32
2016-11-30T09:46:29.672Z,60.22
2016-11-30T09:47:29.754Z,60.61
2016-11-30T09:48:29.599Z,59.94
2016-11-30T09:49:29.582Z,59.19
2016-11-30T09:50:30.109Z,59.22
2016-11-30T09:51:29.362Z,59.22
2016-11-30T09:52:29.594Z,59.12
2016-11-30T09:53:29.667Z,58.65
2016-11-30T09:54:29.694Z,58.26
2016-11-30T09:55:29.713Z,58.17
2016-11-30T09:56:32.033Z,58.26
2016-11-30T09:57:29.747Z,58.17
2016-11-30T09:58:29.479Z,58.07
2016-11-30T09:59:29.660Z,58.07
2016-11-30T10:00:29.951Z,57.44
2016-11-30T10:01:29.638Z,58.17
2016-11-30T10:02:29.689Z,58.36
2016-11-30T10:03:29.891Z,59.22
2016-11-30T10:04:29.729Z,59.97
2016-11-30T10:05:29.898Z,60.51
2016-11-30T10:06:30.873Z,60.7
2016-11-30T10:07:29.556Z,60.44
2016-11-30T10:08:29.683Z,61.18
2016-11-30T10:09:29.795Z,60.44
2016-11-30T10:10:29.715Z,60.73
2016-11-30T10:11:29.755Z,60.32
2016-11-30T10:12:29.582Z,60.32
2016-11-30T10:13:29.546Z,60.61
2016-11-30T10:14:29.746Z,60.54
2016-11-30T10:15:29.708Z,60.7
2016-11-30T10:16:29.627Z,61.08
2016-11-30T10:17:29.596Z,60.99
2016-11-30T10:18:29.623Z,60.99
2016-11-30T10:19:29.534Z,61.46
2016-11-30T10:20:29.612Z,61.55
2016-11-30T10:21:29.561Z,61.65
2016-11-30T10:22:29.791Z,61.08
2016-11-30T10:23:29.559Z,61.36
2016-11-30T10:24:29.652Z,60.89
2016-11-30T10:25:29.620Z,60.8
2016-11-30T10:26:29.677Z,61.08
2016-11-30T10:27:29.674Z,60.8
2016-11-30T10:28:29.680Z,60.51
2016-11-30T10:29:29.571Z,60.61
2016-11-30T10:30:29.892Z,60.7
2016-11-30T10:31:29.765Z,61.18
2016-11-30T10:32:29.568Z,61.27
2016-11-30T10:33:29.626Z,61.18
2016-11-30T10:34:30.223Z,60.8
2016-11-30T10:35:30.514Z,61.46
2016-11-30T10:36:30.312Z,60.51
2016-11-30T10:37:30.465Z,60.7
2016-11-30T10:38:29.798Z,60.7
2016-11-30T10:39:30.137Z,60.51
2016-11-30T10:40:31.142Z,60.8
2016-11-30T10:41:30.406Z,60.8
2016-11-30T10:42:30.247Z,60.44
2016-11-30T10:43:29.942Z,60.25
2016-11-30T10:44:30.235Z,60.13
2016-11-30T10:45:29.395Z,60.16
2016-11-30T10:46:29.780Z,60.06
2016-11-30T10:47:29.248Z,60.13
2016-11-30T10:48:30.137Z,60.25
2016-11-30T10:49:29.640Z,59.59
2016-11-30T10:50:29.743Z,59.12
2016-11-30T10:51:29.960Z,59.22
2016-11-30T10:52:30.081Z,59.03
2016-11-30T10:53:29.824Z,58.93
2016-11-30T10:54:30.731Z,58.07
2016-11-30T10:55:30.514Z,57.44
2016-11-30T10:56:30.448Z,57.54
2016-11-30T10:57:29.885Z,57.89
2016-11-30T10:58:29.957Z,57.98
2016-11-30T10:59:30.294Z,57.6
2016-11-30T11:00:29.691Z,57.13
2016-11-30T11:01:30.191Z,57.35
2016-11-30T11:02:30.342Z,57.25
2016-11-30T11:03:30.515Z,57.06
2016-11-30T11:04:30.523Z,57.13
2016-11-30T11:05:29.688Z,56.87
2016-11-30T11:06:30.405Z,57.13
2016-11-30T11:07:29.795Z,57.04
2016-11-30T11:08:31.086Z,56.87
2016-11-30T11:09:30.131Z,56.59
2016-11-30T11:10:30.144Z,56.49
2016-11-30T11:11:30.395Z,56.3
2016-11-30T11:12:30.731Z,56.4
2016-11-30T11:13:30.462Z,56.3
2016-11-30T11:14:29.839Z,56.68
2016-11-30T11:15:30.187Z,56.12
2016-11-30T11:16:30.102Z,56.3
2016-11-30T11:17:29.709Z,55.57
2016-11-30T11:18:30.664Z,54.44
2016-11-30T11:19:30.435Z,53.77
2016-11-30T11:20:30.130Z,53.89
2016-11-30T11:21:30.580Z,53.61
2016-11-30T11:22:30.425Z,52.76
2016-11-30T11:23:30.056Z,52.56
2016-11-30T11:24:30.005Z,52.09
2016-11-30T11:25:30.268Z,52.09
2016-11-30T11:26:30.354Z,51.52
2016-11-30T11:27:30.266Z,51.74
2016-11-30T11:28:30.084Z,51.17
2016-11-30T11:29:30.131Z,50.89
2016-11-30T11:30:30.255Z,50.57
2016-11-30T11:31:30.190Z,50.48
2016-11-30T11:32:29.864Z,50.51
2016-11-30T11:33:30.347Z,50.7
2016-11-30T11:34:30.358Z,50.6
2016-11-30T11:35:30.141Z,50.03
2016-11-30T11:36:30.060Z,50.48
2016-11-30T11:37:30.341Z,51.43
2016-11-30T11:38:30.576Z,51.24
2016-11-30T11:39:30.027Z,51.36
2016-11-30T11:40:30.255Z,50.98
2016-11-30T11:41:30.252Z,50.7
2016-11-30T11:42:29.725Z,50.22
2016-11-30T11:43:30.212Z,50.41
2016-11-30T11:44:30.449Z,49.93
2016-11-30T11:45:29.802Z,49.65
2016-11-30T11:46:29.895Z,50.03
2016-11-30T11:47:30.738Z,49.08
2016-11-30T11:48:30.232Z,48.99
2016-11-30T11:49:29.714Z,48.99
2016-11-30T11:50:30.467Z,48.61
2016-11-30T11:51:30.286Z,48.99
2016-11-30T11:52:29.742Z,48.63
2016-11-30T11:53:30.014Z,48.03
2016-11-30T11:54:30.090Z,48.35
2016-11-30T11:55:29.880Z,48.16
2016-11-30T11:56:30.410Z,48.51
2016-11-30T11:57:30.095Z,47.85
2016-11-30T11:58:30.469Z,47.87
2016-11-30T11:59:30.420Z,47.68
2016-11-30T12:00:30.048Z,46.92
2016-11-30T12:01:30.321Z,46.94
2016-11-30T12:02:30.878Z,45.5
2016-11-30T12:03:35.683Z,44.93
2016-11-30T12:04:30.590Z,44.73
2016-11-30T12:05:36.531Z,44
2016-11-30T12:06:30.655Z,44.35
2016-11-30T12:07:30.529Z,44.57
2016-11-30T12:08:30.365Z,45.14
2016-11-30T12:09:31.230Z,44.85
2016-11-30T12:10:30.444Z,44.09
2016-11-30T12:11:33.386Z,44.19
2016-11-30T12:12:30.817Z,44.45
2016-11-30T12:13:30.443Z,45.12
2016-11-30T12:14:30.270Z,44.73
2016-11-30T12:15:30.043Z,44.45
2016-11-30T12:16:30.263Z,44.93
2016-11-30T12:17:30.160Z,44.73
2016-11-30T12:18:30.534Z,44.83
2016-11-30T12:19:30.241Z,44.73
2016-11-30T12:20:30.116Z,44.93
2016-11-30T12:21:30.236Z,44.83
2016-11-30T12:22:30.665Z,44.83
2016-11-30T12:23:30.321Z,44.83
2016-11-30T12:24:30.571Z,44.47
2016-11-30T12:25:30.317Z,44.35
2016-11-30T12:26:30.237Z,43.9
2016-11-30T12:27:30.264Z,43.9
2016-11-30T12:28:30.149Z,44.38
2016-11-30T12:29:30.682Z,43.33
2016-11-30T12:30:30.417Z,42.67
2016-11-30T12:31:30.141Z,42.86
2016-11-30T12:32:30.228Z,43.14
2016-11-30T12:33:30.469Z,43.33
2016-11-30T12:34:30.476Z,43.07
2016-11-30T12:35:30.341Z,43.07
2016-11-30T12:36:30.018Z,42.69
2016-11-30T12:37:30.176Z,42.4
2016-11-30T12:38:30.587Z,42.69
2016-11-30T12:39:30.315Z,42.4
2016-11-30T12:40:29.871Z,42.38
2016-11-30T12:41:30.263Z,41.74
2016-11-30T12:42:30.387Z,41.64
2016-11-30T12:43:30.396Z,42.31
2016-11-30T12:44:30.426Z,42.67
2016-11-30T12:45:30.132Z,42.86
2016-11-30T12:46:30.101Z,43.05
2016-11-30T12:47:30.924Z,43.52
2016-11-30T12:48:30.436Z,43.8
2016-11-30T12:49:53.495Z,44.38
2016-11-30T12:50:41.124Z,44.85
2016-11-30T12:51:30.198Z,45.33
2016-11-30T12:52:30.096Z,45.14
2016-11-30T12:53:30.269Z,45.33
2016-11-30T12:54:30.115Z,46.09
2016-11-30T12:55:30.350Z,46.25
2016-11-30T12:56:30.198Z,45.97
2016-11-30T12:57:30.049Z,46.64
2016-11-30T12:58:29.977Z,47.02
2016-11-30T12:59:30.169Z,46.92
2016-11-30T13:00:30.312Z,46.85
2016-11-30T13:01:30.362Z,46.92
2016-11-30T13:02:30.414Z,47.39
2016-11-30T13:03:30.644Z,47.02
2016-11-30T13:04:30.503Z,47.77
2016-11-30T13:05:30.367Z,47.77
2016-11-30T13:06:30.298Z,47.77
2016-11-30T13:07:30.621Z,48.06
2016-11-30T13:08:30.125Z,48.16
2016-11-30T13:09:30.890Z,48.35